Time;durP1;ratioP1;P1;durP2;ratioP2;P2;SDS_P1;SDS_P2;PMS_P1;PMS_P2;Temp;Humidity;BMP_temperature;BMP_pressure;BME280_temperature;BME280_humidity;BME280_pressure;Samples;Min_cycle;Max_cycle;Signal;HPM_P1;HPM_P2
2022/12/07 00:02:20;;;;;;;32.30;12.82;;;;;;;-23.91;60.92;99059.13;6195944;28;20053;-68
2022/12/07 00:05:23;;;;;;;32.40;13.93;;;;;;;-23.91;60.75;99054.13;6196698;28;20049;-68
2022/12/07 00:08:25;;;;;;;30.48;12.85;;;;;;;-23.86;60.75;99055.47;6163020;28;20042;-67
2022/12/07 00:11:28;;;;;;;41.40;14.00;;;;;;;-23.90;60.66;99048.41;6196635;28;20062;-67
2022/12/07 00:14:30;;;;;;;30.25;12.77;;;;;;;-23.86;60.70;99045.50;6196073;28;20057;-67
2022/12/07 00:17:36;;;;;;;35.80;14.55;;;;;;;-23.91;60.72;99036.72;6196328;28;20042;-68
2022/12/07 00:20:37;;;;;;;23.45;12.90;;;;;;;-23.89;60.85;99047.69;6196722;28;20089;-68
2022/12/07 00:23:40;;;;;;;28.15;14.40;;;;;;;-23.93;60.45;99045.63;6196545;28;20378;-67
2022/12/07 00:26:43;;;;;;;27.45;13.55;;;;;;;-23.97;60.52;99053.47;6200665;28;20133;-67
2022/12/07 00:29:47;;;;;;;36.17;15.80;;;;;;;-24.00;60.47;99048.19;6201117;28;20064;-67
2022/12/07 00:32:51;;;;;;;23.70;10.90;;;;;;;-24.01;60.69;99054.78;6201045;28;20050;-66
2022/12/07 00:35:57;;;;;;;28.75;14.68;;;;;;;-24.05;61.00;99058.56;6201119;28;20551;-68
2022/12/07 00:39:02;;;;;;;27.90;13.98;;;;;;;-24.06;60.79;99061.75;6201063;28;20050;-67
2022/12/07 00:42:03;;;;;;;32.58;15.13;;;;;;;-24.18;60.60;99039.72;6200235;28;20060;-67
2022/12/07 00:45:05;;;;;;;27.75;12.85;;;;;;;-24.17;60.46;99042.38;6200227;28;20421;-67
2022/12/07 00:48:06;;;;;;;31.85;16.85;;;;;;;-24.21;60.50;99045.25;6200169;28;20545;-67
2022/12/07 00:51:09;;;;;;;23.00;10.10;;;;;;;-24.26;60.45;99042.28;6200131;28;20046;-67
2022/12/07 00:54:10;;;;;;;;;;;;;;;-24.27;60.70;99040.53;6201064;28;20038;-67
2022/12/07 00:57:11;;;;;;;24.15;8.82;;;;;;;-24.32;60.47;99045.75;6200655;28;19925;-67
2022/12/07 01:00:15;;;;;;;55.28;37.90;;;;;;;-24.36;60.50;99038.72;6200040;28;20054;-67
2022/12/07 01:03:18;;;;;;;26.75;12.95;;;;;;;-24.40;60.57;99037.50;6200448;28;20493;-67
2022/12/07 01:06:21;;;;;;;35.55;15.38;;;;;;;-24.40;60.67;99046.56;6200349;28;20038;-67
2022/12/07 01:09:22;;;;;;;32.67;13.82;;;;;;;-24.37;60.79;99049.38;6199594;28;20046;-67
2022/12/07 01:12:29;;;;;;;29.80;13.27;;;;;;;-24.33;60.70;99044.88;6200381;28;20042;-67
2022/12/07 01:15:30;;;;;;;36.97;13.50;;;;;;;-24.29;60.88;99056.03;6200291;28;20130;-67
2022/12/07 01:18:34;;;;;;;31.35;11.75;;;;;;;-24.30;60.54;99046.81;6199861;28;20089;-67
2022/12/07 01:21:37;;;;;;;26.23;11.82;;;;;;;-24.30;60.58;99059.25;6199889;28;20042;-67
2022/12/07 01:24:41;;;;;;;28.70;11.25;;;;;;;-24.36;60.57;99052.03;6199880;28;20042;-67
2022/12/07 01:27:42;;;;;;;27.52;12.70;;;;;;;-24.39;60.44;99059.16;6199981;28;20065;-67
2022/12/07 01:31:04;;;;;;;23.58;12.80;;;;;;;-24.43;60.41;99054.63;6199843;28;20493;-68
2022/12/07 01:34:23;;;;;;;28.10;13.15;;;;;;;-24.45;60.42;99052.69;6198802;28;20061;-67
2022/12/07 01:37:51;;;;;;;16.70;9.50;;;;;;;-24.47;60.20;99061.63;6198400;28;20065;-67
2022/12/07 01:40:56;;;;;;;23.00;11.80;;;;;;;-24.50;60.30;99054.72;6198521;28;20066;-69
2022/12/07 01:44:25;;;;;;;24.80;12.43;;;;;;;-24.47;60.45;99056.66;6199409;28;20046;-70
2022/12/07 01:47:27;;;;;;;18.73;10.43;;;;;;;-24.52;60.19;99051.19;6198363;28;20054;-68
2022/12/07 01:50:31;;;;;;;24.40;10.52;;;;;;;-24.49;60.27;99066.41;6198412;28;20062;-68
2022/12/07 01:53:38;;;;;;;27.30;11.83;;;;;;;-24.56;60.34;99054.09;6198440;28;20470;-67
2022/12/07 01:56:41;;;;;;;19.35;10.75;;;;;;;-24.56;60.00;99062.41;6199127;28;20523;-69
2022/12/07 01:59:45;;;;;;;25.50;11.15;;;;;;;-24.57;60.47;99063.13;6198253;28;20061;-67
2022/12/07 02:03:09;;;;;;;35.45;13.75;;;;;;;-24.61;60.39;99060.16;6198957;28;20046;-68
2022/12/07 02:06:15;;;;;;;27.10;12.52;;;;;;;-24.58;60.54;99066.34;6197908;28;20061;-66
2022/12/07 02:09:16;;;;;;;37.78;14.63;;;;;;;-24.62;60.34;99066.75;6198698;28;20049;-69
2022/12/07 02:12:18;;;;;;;31.52;15.93;;;;;;;-24.62;60.65;99064.28;6197643;28;20429;-67
2022/12/07 02:16:17;;;;;;;51.45;17.13;;;;;;;-24.59;60.75;99069.56;6181421;28;20046;-67
2022/12/07 02:19:36;;;;;;;32.80;15.43;;;;;;;-24.58;60.35;99071.31;6198364;28;20058;-67
2022/12/07 02:22:55;;;;;;;35.50;15.50;;;;;;;-24.56;60.57;99074.84;6198522;28;20042;-67
2022/12/07 02:26:20;;;;;;;35.60;16.83;;;;;;;-24.54;60.57;99068.41;6198438;28;20451;-67
2022/12/07 02:29:26;;;;;;;38.07;16.03;;;;;;;-24.52;60.66;99066.97;6198381;28;20137;-67
2022/12/07 02:32:40;;;;;;;39.88;16.00;;;;;;;-24.50;60.75;99060.56;6197176;28;20573;-67
2022/12/07 02:36:04;;;;;;;40.83;18.80;;;;;;;-24.51;60.47;99058.81;6198272;28;20056;-66
2022/12/07 02:39:22;;;;;;;40.58;15.90;;;;;;;-24.50;60.79;99060.56;6197580;28;20507;-66
2022/12/07 02:42:33;;;;;;;55.80;18.17;;;;;;;-24.56;60.83;99049.97;6197395;28;20046;-67
2022/12/07 02:45:38;;;;;;;45.83;21.83;;;;;;;-24.59;60.60;99053.75;6197411;28;20057;-66
2022/12/07 02:48:42;;;;;;;57.55;22.80;;;;;;;-24.54;61.07;99063.44;6195843;28;20043;-66
2022/12/07 02:51:46;;;;;;;73.18;26.55;;;;;;;-24.56;60.75;99069.88;6197997;28;20046;-67
2022/12/07 02:54:48;;;;;;;53.47;21.80;;;;;;;-24.60;60.91;99071.88;6195975;28;20046;-66
2022/12/07 02:57:55;;;;;;;61.67;23.45;;;;;;;-24.67;60.78;99065.38;6197666;28;20583;-67
2022/12/07 03:01:41;;;;;;;41.97;16.65;;;;;;;-24.69;60.63;99066.81;6196793;28;20102;-67
2022/12/07 03:04:51;;;;;;;50.85;17.60;;;;;;;-24.71;60.79;99068.25;6148452;28;20050;-66
2022/12/07 03:08:20;;;;;;;46.85;19.10;;;;;;;-24.75;61.22;99062.06;6197064;28;20042;-68
2022/12/07 03:11:44;;;;;;;43.75;16.42;;;;;;;-24.71;61.31;99068.25;6197320;28;20050;-66
2022/12/07 03:14:53;;;;;;;41.10;17.13;;;;;;;-24.68;60.72;99061.09;6196684;28;20061;-67
2022/12/07 03:17:57;;;;;;;47.08;16.20;;;;;;;-24.70;61.20;99050.16;6196305;28;20054;-67
2022/12/07 03:21:04;;;;;;;42.78;17.05;;;;;;;-24.76;60.73;99054.47;6196628;28;20078;-68
2022/12/07 03:24:20;;;;;;;43.95;14.85;;;;;;;-24.81;61.06;99061.44;6197200;28;20046;-68
2022/12/07 03:27:28;;;;;;;;;;;;;;;-24.79;60.81;99062.50;6197504;28;20038;-67
2022/12/07 03:30:36;;;;;;;23.38;8.82;;;;;;;-24.78;60.68;99060.88;6195859;28;19922;-67
2022/12/07 03:33:49;;;;;;;36.00;11.82;;;;;;;-24.82;60.71;99048.84;6195820;28;20057;-67
2022/12/07 03:36:55;;;;;;;26.58;13.10;;;;;;;-24.78;60.43;99063.38;6196605;28;20528;-67
2022/12/07 03:40:08;;;;;;;40.92;16.90;;;;;;;-24.75;60.89;99061.19;6196438;28;20417;-67
2022/12/07 03:43:12;;;;;;;41.85;16.73;;;;;;;-24.75;60.52;99066.16;6196287;28;20050;-67
2022/12/07 03:46:49;;;;;;;41.88;17.40;;;;;;;-24.76;60.60;99075.25;6196319;28;20062;-67
2022/12/07 03:50:19;;;;;;;26.85;12.10;;;;;;;-24.77;60.45;99075.06;6181400;28;20125;-67
2022/12/07 03:53:36;;;;;;;30.60;15.50;;;;;;;-24.88;60.72;99063.09;6180195;28;20062;-67
2022/12/07 03:56:39;;;;;;;53.22;23.15;;;;;;;-24.78;60.81;99080.75;6196163;28;20057;-67
2022/12/07 03:59:45;;;;;;;63.33;26.08;;;;;;;-24.79;60.75;99076.50;6199089;28;20077;-68
2022/12/07 04:02:47;;;;;;;111.85;37.85;;;;;;;-24.80;60.67;99078.09;6200685;28;20047;-67
2022/12/07 04:05:49;;;;;;;79.85;31.58;;;;;;;-24.82;60.69;99074.59;6200805;28;20046;-66
2022/12/07 04:08:50;;;;;;;109.78;38.83;;;;;;;-24.84;60.30;99081.00;6200858;28;20061;-67
2022/12/07 04:11:54;;;;;;;77.65;29.88;;;;;;;-24.83;60.36;99086.84;6201204;28;20053;-67
2022/12/07 04:15:00;;;;;;;74.75;28.38;;;;;;;-24.81;60.82;99087.91;6201628;28;20042;-67
2022/12/07 04:18:02;;;;;;;80.70;27.42;;;;;;;-24.75;60.81;99091.03;6200545;28;20057;-67
2022/12/07 04:21:03;;;;;;;60.90;24.70;;;;;;;-24.68;60.76;99093.44;6200526;28;20050;-67
2022/12/07 04:24:09;;;;;;;75.43;30.65;;;;;;;-24.63;60.50;99084.84;6201024;28;20042;-67
2022/12/07 04:27:13;;;;;;;91.68;30.55;;;;;;;-24.59;60.27;99089.44;6200273;28;20398;-67
2022/12/07 04:30:14;;;;;;;55.63;25.70;;;;;;;-24.57;60.44;99097.94;6200466;28;20050;-67
2022/12/07 04:33:15;;;;;;;72.85;24.00;;;;;;;-24.54;60.52;99093.28;6200321;28;20125;-67
2022/12/07 04:36:19;;;;;;;57.15;26.00;;;;;;;-24.53;60.24;99105.00;6200331;28;20485;-66
2022/12/07 04:39:26;;;;;;;70.20;24.67;;;;;;;-24.50;60.14;99090.41;6199857;28;20054;-67
2022/12/07 04:42:31;;;;;;;59.35;21.90;;;;;;;-24.42;60.68;99087.81;6200970;28;20039;-67
2022/12/07 04:45:35;;;;;;;54.50;21.33;;;;;;;-24.33;60.08;99088.78;6200935;28;20042;-68
2022/12/07 04:48:39;;;;;;;47.35;21.20;;;;;;;-24.19;60.19;99088.59;6200173;28;20134;-68
2022/12/07 04:51:40;;;;;;;51.88;20.30;;;;;;;-24.15;60.04;99095.66;6199978;28;20054;-66
2022/12/07 04:54:44;;;;;;;56.78;21.95;;;;;;;-24.14;59.88;99102.41;6199805;28;20065;-66
2022/12/07 04:57:46;;;;;;;55.22;25.08;;;;;;;-24.09;59.98;99098.78;6199781;28;20433;-67
2022/12/07 05:00:53;;;;;;;73.65;27.70;;;;;;;-24.01;59.96;99099.56;6199696;28;20065;-66
2022/12/07 05:03:54;;;;;;;76.78;28.33;;;;;;;-23.91;59.79;99101.44;6199572;28;20057;-67
2022/12/07 05:06:55;;;;;;;65.18;27.10;;;;;;;-23.81;59.73;99106.59;6199464;28;20457;-67
2022/12/07 05:09:57;;;;;;;75.55;28.70;;;;;;;-23.71;59.71;99099.38;6181725;28;20050;-67
2022/12/07 05:13:03;;;;;;;78.70;30.50;;;;;;;-23.59;59.73;99098.09;6199032;28;20050;-66
2022/12/07 05:16:05;;;;;;;70.72;31.35;;;;;;;-23.47;59.70;99086.00;6199271;28;20481;-67
2022/12/07 05:19:09;;;;;;;95.65;34.35;;;;;;;-23.28;59.25;99096.22;6198274;28;20058;-68
2022/12/07 05:22:15;;;;;;;96.47;35.65;;;;;;;-23.15;59.29;99094.25;6199630;28;20055;-67
2022/12/07 05:25:16;;;;;;;90.57;31.65;;;;;;;-23.00;59.34;99099.00;6198862;28;20132;-66
2022/12/07 05:28:17;;;;;;;79.53;32.17;;;;;;;-22.83;59.33;99104.00;6199526;28;20046;-67
2022/12/07 05:31:21;;;;;;;87.35;30.42;;;;;;;-22.60;58.35;99095.41;6198446;28;20081;-67
2022/12/07 05:34:25;;;;;;;56.47;26.33;;;;;;;-22.30;58.57;99095.94;6199434;28;20502;-66
2022/12/07 05:37:26;;;;;;;80.50;31.80;;;;;;;-22.01;59.11;99098.69;6198480;28;20528;-67
2022/12/07 05:40:29;;;;;;;82.22;32.90;;;;;;;-21.92;58.26;99093.69;6198873;28;20136;-68
2022/12/07 05:43:34;;;;;;;73.78;28.45;;;;;;;-21.89;58.65;99094.00;6199462;28;20469;-67
2022/12/07 05:46:35;;;;;;;75.57;27.95;;;;;;;-21.84;58.37;99099.44;6198672;28;20046;-67
2022/12/07 05:49:40;;;;;;;82.75;32.25;;;;;;;-21.79;58.01;99104.13;6198867;28;20061;-68
2022/12/07 05:52:47;;;;;;;78.60;32.63;;;;;;;-21.69;58.04;99105.00;6199282;28;20088;-68
2022/12/07 05:55:52;;;;;;;91.63;36.60;;;;;;;-21.65;58.11;99102.03;6198209;28;20051;-67
2022/12/07 06:02:17;;;;;;;95.35;37.40;;;;;;;-21.48;58.29;99107.06;6198368;28;20429;-67
2022/12/07 06:05:18;;;;;;;90.30;34.72;;;;;;;-21.37;58.82;99101.44;6198091;28;20661;-68
2022/12/07 06:08:20;;;;;;;97.72;36.85;;;;;;;-21.24;58.65;99103.44;6198000;28;20053;-67
2022/12/07 06:14:45;;;;;;;99.18;37.05;;;;;;;-21.05;58.36;99096.03;6197553;28;20054;-67
2022/12/07 06:17:53;;;;;;;95.05;36.85;;;;;;;-20.94;58.66;99097.03;6198210;28;20058;-67
2022/12/07 06:20:55;;;;;;;105.70;36.10;;;;;;;-20.85;58.33;99106.25;6197373;28;20057;-67
2022/12/07 06:23:59;;;;;;;91.35;37.67;;;;;;;-20.73;58.25;99093.09;6197712;28;20046;-67
2022/12/07 06:27:00;;;;;;;87.05;36.97;;;;;;;-20.64;58.19;99086.41;6197792;28;20051;-68
2022/12/07 06:30:06;;;;;;;101.45;39.53;;;;;;;-20.48;58.21;99087.03;6198310;28;20050;-68
2022/12/07 06:33:07;;;;;;;;;;;;;;;-20.33;58.71;99080.03;6180950;28;20050;-67
2022/12/07 06:36:11;;;;;;;86.95;36.88;;;;;;;-20.21;57.76;99080.25;6197634;28;19922;-68
2022/12/07 06:39:12;;;;;;;107.82;41.67;;;;;;;-20.12;57.85;99066.06;6196869;28;20051;-68
2022/12/07 06:42:17;;;;;;;117.38;44.72;;;;;;;-20.02;57.92;99071.09;6197899;28;20042;-68
2022/12/07 06:45:21;;;;;;;134.25;46.33;;;;;;;-19.91;58.13;99058.66;6197340;28;20054;-68
2022/12/07 06:48:25;;;;;;;132.40;52.47;;;;;;;-19.86;57.94;99057.44;6197392;28;20065;-68
2022/12/07 06:51:30;;;;;;;148.55;51.65;;;;;;;-19.67;58.47;99065.78;6198184;28;20422;-68
2022/12/07 06:54:37;;;;;;;136.23;55.13;;;;;;;-19.52;58.01;99064.59;6307307;27;1826994;-68
2022/12/07 06:57:38;;;;;;;141.77;54.85;;;;;;;-19.39;57.90;99065.66;6342492;28;20043;-67
2022/12/07 07:00:40;;;;;;;136.63;57.22;;;;;;;-19.24;58.21;99066.97;6342525;28;20524;-68
2022/12/07 07:03:44;;;;;;;147.55;59.42;;;;;;;-19.06;58.50;99063.53;6342360;28;20410;-67
2022/12/07 07:06:46;;;;;;;149.30;61.10;;;;;;;-18.84;58.17;99060.31;6342390;28;20444;-68
2022/12/07 07:09:48;;;;;;;177.93;70.93;;;;;;;-18.69;58.25;99051.50;6342329;28;20126;-67
2022/12/07 07:12:53;;;;;;;244.68;95.72;;;;;;;-16.37;58.03;99050.47;6342067;28;20077;-68
2022/12/07 07:15:54;;;;;;;216.43;90.78;;;;;;;-11.22;51.87;99049.16;6342259;28;20042;-68
2022/12/07 07:18:56;;;;;;;199.48;78.47;;;;;;;-6.74;45.73;99047.09;6341913;28;20036;-68
2022/12/07 07:22:02;;;;;;;150.27;64.03;;;;;;;-3.23;41.60;99042.66;6341900;28;20497;-67
2022/12/07 07:25:04;;;;;;;136.90;55.83;;;;;;;-0.53;39.82;99053.09;6341933;28;20037;-67
2022/12/07 07:28:05;;;;;;;142.48;56.88;;;;;;;1.29;38.70;99042.06;6341791;28;20039;-68
2022/12/07 07:31:06;;;;;;;131.05;53.60;;;;;;;2.74;38.20;99053.03;6341699;28;20417;-68
2022/12/07 07:34:10;;;;;;;121.85;49.95;;;;;;;4.02;36.44;99047.69;6341327;28;20563;-68
2022/12/07 07:37:12;;;;;;;102.65;43.47;;;;;;;5.11;37.16;99052.25;6341695;28;20038;-68
2022/12/07 07:40:14;;;;;;;97.20;41.67;;;;;;;5.96;36.04;99052.31;6341716;28;20047;-68
2022/12/07 07:43:19;;;;;;;90.90;41.08;;;;;;;6.61;35.59;99041.91;6341128;28;20081;-68
2022/12/07 07:46:25;;;;;;;89.78;40.15;;;;;;;7.12;33.80;99043.75;6341560;28;20040;-68
2022/12/07 07:49:26;;;;;;;89.90;40.65;;;;;;;7.71;34.30;99035.75;6341314;28;20039;-69
2022/12/07 07:52:32;;;;;;;78.05;38.58;;;;;;;8.01;32.55;99027.31;6341148;28;20143;-68
2022/12/07 07:55:39;;;;;;;73.57;36.53;;;;;;;8.39;33.04;99020.41;6341611;28;20048;-69
2022/12/07 07:58:43;;;;;;;71.28;34.88;;;;;;;8.84;31.40;99029.91;6341246;28;20141;-68
2022/12/07 08:01:49;;;;;;;64.03;37.17;;;;;;;9.37;31.55;99025.97;6341252;28;20070;-68
2022/12/07 08:04:55;;;;;;;75.65;38.13;;;;;;;9.81;30.08;99015.19;6330589;28;20036;-68
2022/12/07 08:08:02;;;;;;;77.32;38.90;;;;;;;10.25;30.01;99013.94;6323150;28;20063;-68
2022/12/07 08:11:11;;;;;;;81.45;40.80;;;;;;;10.42;26.48;99007.34;6324473;28;20051;-69
2022/12/07 08:14:17;;;;;;;84.90;44.58;;;;;;;10.41;28.47;99011.72;6324104;28;20422;-68
2022/12/07 08:17:21;;;;;;;95.63;48.17;;;;;;;10.48;29.25;99001.88;6323824;28;20043;-70
2022/12/07 08:20:22;;;;;;;83.78;45.03;;;;;;;10.56;28.88;98994.63;6323842;28;20088;-69
2022/12/07 08:23:30;;;;;;;93.05;44.67;;;;;;;10.67;28.37;98981.97;6323924;28;20143;-68
2022/12/07 08:26:31;;;;;;;91.93;45.38;;;;;;;10.92;27.29;98981.19;6323513;28;20413;-69
2022/12/07 08:29:36;;;;;;;132.48;61.80;;;;;;;11.11;26.28;98984.94;6323607;28;20040;-68
2022/12/07 08:32:40;;;;;;;141.32;64.00;;;;;;;11.80;24.97;98993.06;6323466;28;20047;-69
2022/12/07 08:35:41;;;;;;;133.32;62.53;;;;;;;12.16;24.21;98989.19;6323468;28;20040;-69
2022/12/07 08:38:47;;;;;;;111.88;57.13;;;;;;;12.24;22.73;98987.13;6323413;28;20036;-69
2022/12/07 08:41:53;;;;;;;108.88;53.28;;;;;;;11.93;22.84;98984.78;6323457;28;20044;-70
2022/12/07 08:44:57;;;;;;;100.78;49.75;;;;;;;11.80;23.31;98984.31;6323366;28;20093;-69
2022/12/07 08:48:07;;;;;;;93.40;45.22;;;;;;;11.61;21.87;98976.22;6323382;28;20035;-69
2022/12/07 08:51:14;;;;;;;70.68;38.08;;;;;;;11.42;22.71;98965.44;6323314;28;20040;-70
2022/12/07 08:54:18;;;;;;;68.47;34.58;;;;;;;11.64;22.27;98982.22;6322788;28;20052;-70
2022/12/07 08:57:19;;;;;;;59.53;31.10;;;;;;;11.79;22.18;98974.69;6323026;28;20135;-69
2022/12/07 09:00:22;;;;;;;63.00;30.67;;;;;;;11.71;21.92;98967.03;6322711;28;20040;-69
2022/12/07 09:03:28;;;;;;;60.10;28.80;;;;;;;11.57;21.81;98967.53;6323048;28;20056;-69
2022/12/07 09:06:35;;;;;;;62.25;33.13;;;;;;;11.39;21.55;98960.28;6323052;28;20138;-69
2022/12/07 09:09:37;;;;;;;63.80;35.70;;;;;;;10.93;21.62;98956.59;6322597;28;20044;-69
2022/12/07 09:12:44;;;;;;;68.35;36.42;;;;;;;10.43;21.55;98967.78;6322315;28;20048;-69
2022/12/07 09:15:48;;;;;;;73.55;37.88;;;;;;;9.58;21.77;98968.50;6321424;28;20044;-68
2022/12/07 09:18:53;;;;;;;69.90;36.90;;;;;;;9.13;21.87;98961.78;6321689;28;20070;-68
2022/12/07 09:21:59;;;;;;;69.47;36.33;;;;;;;8.90;21.06;98951.88;6322413;28;20039;-68
2022/12/07 09:25:01;;;;;;;70.45;36.47;;;;;;;8.94;21.49;98958.75;6322455;28;20043;-68
2022/12/07 09:28:04;;;;;;;73.82;39.13;;;;;;;8.81;21.47;98946.84;6322197;28;20036;-69
2022/12/07 09:31:11;;;;;;;79.72;40.30;;;;;;;8.68;21.01;98950.66;6322163;28;20044;-68
2022/12/07 09:34:15;;;;;;;76.68;41.28;;;;;;;8.46;21.30;98947.69;6321961;28;20048;-68
2022/12/07 09:37:16;;;;;;;69.78;37.55;;;;;;;8.37;21.17;98940.84;6322041;28;20414;-68
2022/12/07 09:40:21;;;;;;;75.30;38.85;;;;;;;8.28;21.09;98935.81;6321965;28;20044;-68
2022/12/07 09:43:27;;;;;;;74.00;40.13;;;;;;;8.04;21.09;98938.09;6321526;28;20044;-67
2022/12/07 09:46:41;;;;;;;75.35;38.60;;;;;;;7.74;20.81;98943.97;6321804;28;20048;-68
2022/12/07 09:49:43;;;;;;;77.22;38.42;;;;;;;7.54;21.07;98933.91;6321355;28;20040;-68
2022/12/07 09:52:50;;;;;;;69.95;38.97;;;;;;;7.49;20.90;98939.22;6320877;28;20075;-67
2022/12/07 09:55:53;;;;;;;75.68;38.35;;;;;;;7.56;20.96;98930.34;6320977;28;20533;-67
2022/12/07 09:59:18;;;;;;;75.50;39.13;;;;;;;7.69;20.30;98946.69;6321552;28;20058;-68
2022/12/07 10:02:41;;;;;;;75.43;39.10;;;;;;;5.34;21.72;98937.19;6321371;28;20048;-68
2022/12/07 10:05:49;;;;;;;79.53;42.03;;;;;;;0.70;25.12;98933.63;6321141;28;20445;-67
2022/12/07 10:08:50;;;;;;;79.00;41.15;;;;;;;-2.86;29.25;98920.78;6321178;28;20055;-68
2022/12/07 10:12:14;;;;;;;82.30;42.00;;;;;;;-5.38;30.79;98930.44;6320876;28;20509;-67
2022/12/07 10:15:21;;;;;;;100.90;44.53;;;;;;;-7.33;33.83;98929.72;6321178;28;20066;-68
2022/12/07 10:18:27;;;;;;;91.45;42.45;;;;;;;-8.82;34.60;98927.81;6320706;28;20047;-68
2022/12/07 10:21:31;;;;;;;95.32;42.42;;;;;;;-9.98;35.87;98926.72;6320936;28;20048;-67
2022/12/07 10:24:42;;;;;;;100.82;42.42;;;;;;;-10.99;36.58;98921.63;6321039;28;20051;-69
2022/12/07 10:27:57;;;;;;;91.32;42.22;;;;;;;-11.83;37.50;98925.59;6320902;28;20173;-68
2022/12/07 10:31:04;;;;;;;99.03;44.17;;;;;;;-12.55;37.40;98928.25;6320776;28;20036;-68
2022/12/07 10:34:30;;;;;;;99.40;43.70;;;;;;;-13.19;37.74;98936.31;6320765;28;20402;-68
2022/12/07 10:37:40;;;;;;;108.70;45.42;;;;;;;-13.68;38.34;98932.44;6320687;28;20444;-69
2022/12/07 10:40:44;;;;;;;115.75;50.97;;;;;;;-14.10;38.72;98937.38;6320661;28;20549;-67
2022/12/07 10:43:53;;;;;;;103.68;43.53;;;;;;;-14.45;38.38;98946.88;6320458;28;20135;-67
2022/12/07 10:47:09;;;;;;;91.20;42.33;;;;;;;-14.85;39.37;98944.28;6320596;28;20044;-68
2022/12/07 10:50:24;;;;;;;91.40;39.38;;;;;;;-15.20;39.22;98946.16;6320556;28;20139;-67
2022/12/07 10:53:38;;;;;;;95.15;38.17;;;;;;;-15.50;39.57;98944.91;6320153;28;20052;-67
2022/12/07 10:57:01;;;;;;;90.20;35.38;;;;;;;-15.76;39.65;98937.19;6320420;28;20537;-67
2022/12/07 11:00:08;;;;;;;84.78;36.55;;;;;;;-15.97;39.71;98944.97;6320555;28;20556;-68
2022/12/07 11:03:38;;;;;;;90.78;36.38;;;;;;;-16.18;39.87;98956.06;6320483;28;20181;-68
2022/12/07 11:06:45;;;;;;;93.22;39.78;;;;;;;-16.45;40.26;98957.44;6290559;28;20047;-68
2022/12/07 11:10:00;;;;;;;83.05;34.28;;;;;;;-16.71;40.69;98947.97;6320335;28;20044;-68
2022/12/07 11:13:23;;;;;;;84.45;35.22;;;;;;;-16.94;40.84;98944.63;6320246;28;20040;-67
2022/12/07 11:16:43;;;;;;;89.45;35.65;;;;;;;-17.16;41.04;98958.88;6319912;28;20044;-69
2022/12/07 11:20:08;;;;;;;54.58;25.85;;;;;;;-17.37;41.47;98955.59;6319592;28;20528;-68
2022/12/07 11:23:24;;;;;;;60.03;22.48;;;;;;;-17.60;41.82;98957.22;6319761;28;20417;-67
2022/12/07 11:26:34;;;;;;;54.08;22.67;;;;;;;-17.79;41.78;98959.09;6319291;28;20052;-68
2022/12/07 11:29:51;;;;;;;63.58;27.30;;;;;;;-17.96;41.47;98965.31;6320124;28;20505;-69
2022/12/07 11:33:31;;;;;;;64.70;25.83;;;;;;;-18.12;42.65;98969.09;6319685;28;20059;-68
2022/12/07 11:36:39;;;;;;;54.70;22.27;;;;;;;-18.22;42.12;98966.63;6278397;28;20076;-68
2022/12/07 11:39:52;;;;;;;106.40;39.17;;;;;;;-18.37;42.16;98957.84;6321363;28;20118;-67
2022/12/07 11:43:00;;;;;;;110.38;42.13;;;;;;;-18.52;42.43;98972.56;6324623;28;20040;-68
2022/12/07 11:46:07;;;;;;;109.43;42.05;;;;;;;-18.72;42.99;98955.00;6324477;28;20036;-68
2022/12/07 11:49:26;;;;;;;107.97;41.63;;;;;;;-18.76;42.84;98961.44;6323892;28;20048;-68
2022/12/07 11:52:43;;;;;;;97.72;33.60;;;;;;;-18.84;42.71;98969.97;6323845;28;20055;-68
2022/12/07 11:56:00;;;;;;;78.32;31.95;;;;;;;-18.95;43.11;98965.69;6324385;28;20432;-67
2022/12/07 11:59:11;;;;;;;65.25;26.70;;;;;;;-19.09;43.48;98957.00;6324267;28;20413;-69
2022/12/07 12:02:22;;;;;;;64.90;26.27;;;;;;;-19.17;43.64;98955.50;6324241;28;20036;-67
2022/12/07 12:05:25;;;;;;;66.88;25.77;;;;;;;-19.21;43.53;98954.38;6323681;28;20048;-67
2022/12/07 12:08:32;;;;;;;68.47;27.33;;;;;;;-19.31;43.23;98945.19;6323528;28;20063;-67
2022/12/07 12:11:45;;;;;;;67.43;26.45;;;;;;;-19.38;44.22;98962.13;6323765;28;20032;-68
2022/12/07 12:14:55;;;;;;;60.63;25.73;;;;;;;-19.46;43.97;98953.06;6324236;28;20040;-67
2022/12/07 12:18:25;;;;;;;51.38;21.50;;;;;;;-19.60;43.55;98947.75;6323901;28;20040;-67
2022/12/07 12:21:32;;;;;;;54.80;23.25;;;;;;;-19.75;43.89;98954.00;6323666;28;20040;-68
2022/12/07 12:24:36;;;;;;;55.22;25.38;;;;;;;-19.94;43.88;98947.41;6322979;28;20188;-68
2022/12/07 12:27:40;;;;;;;60.70;27.67;;;;;;;-20.03;44.13;98961.66;6323696;28;20497;-67
2022/12/07 12:30:43;;;;;;;70.20;29.40;;;;;;;-20.11;44.55;98966.75;6324010;28;20047;-67
2022/12/07 12:33:51;;;;;;;65.43;30.35;;;;;;;-20.21;44.20;98965.03;6323243;28;20550;-67
2022/12/07 12:36:54;;;;;;;115.35;41.17;;;;;;;-20.30;44.24;98960.09;6323377;28;20040;-68
2022/12/07 12:40:14;;;;;;;69.75;30.38;;;;;;;-20.34;44.91;98959.72;6323144;28;20063;-66
2022/12/07 12:43:40;;;;;;;80.53;31.15;;;;;;;-20.40;44.86;98953.44;6323152;28;20051;-67
2022/12/07 12:46:44;;;;;;;;;;;;;;;-20.43;44.31;98952.28;6323414;28;20089;-67
2022/12/07 12:50:12;;;;;;;60.45;29.02;;;;;;;-20.55;45.17;98942.06;6322675;28;19916;-67
2022/12/07 12:53:27;;;;;;;97.75;42.55;;;;;;;-20.64;44.91;98948.78;6322504;28;20414;-66
2022/12/07 12:56:51;;;;;;;89.68;38.22;;;;;;;-20.72;45.24;98944.72;6323007;28;20044;-67
2022/12/07 12:59:52;;;;;;;88.75;38.10;;;;;;;-20.78;44.90;98949.19;6322800;28;20040;-68
2022/12/07 13:03:00;;;;;;;98.78;39.92;;;;;;;-20.85;44.80;98936.13;6322562;28;20040;-67
2022/12/07 13:06:35;;;;;;;91.07;38.53;;;;;;;-20.90;45.46;98944.84;6321927;28;20402;-68
2022/12/07 13:09:42;;;;;;;80.88;36.35;;;;;;;-20.96;44.87;98944.28;6322560;28;20375;-68
2022/12/07 13:12:43;;;;;;;79.35;32.72;;;;;;;-21.00;44.51;98939.78;6322291;28;20032;-68
2022/12/07 13:15:50;;;;;;;91.60;37.90;;;;;;;-21.02;45.16;98947.88;6322429;28;20044;-67
2022/12/07 13:18:54;;;;;;;103.25;42.60;;;;;;;-21.06;44.81;98939.19;6322703;28;20123;-67
2022/12/07 13:21:55;;;;;;;111.50;45.00;;;;;;;-21.09;45.00;98936.41;6321733;28;20536;-67
2022/12/07 13:25:11;;;;;;;115.65;46.70;;;;;;;-21.10;45.38;98937.16;6322209;28;20047;-69
2022/12/07 13:28:20;;;;;;;122.93;47.17;;;;;;;-21.14;45.41;98935.13;6321929;28;20524;-67
2022/12/07 13:31:51;;;;;;;122.47;44.70;;;;;;;-21.18;45.17;98943.09;6321516;28;20097;-68
2022/12/07 13:34:52;;;;;;;176.00;65.20;;;;;;;-21.28;45.27;98925.50;6321584;28;20425;-69
2022/12/07 13:37:53;;;;;;;209.52;83.90;;;;;;;-21.24;45.34;98937.53;6321703;28;20047;-67
2022/12/07 13:41:10;;;;;;;213.35;87.32;;;;;;;-21.26;45.63;98934.03;6321923;28;20047;-67
2022/12/07 13:44:18;;;;;;;241.52;93.25;;;;;;;-21.29;45.76;98932.13;6321676;28;20040;-68
2022/12/07 13:47:28;;;;;;;234.63;99.50;;;;;;;-21.35;45.93;98932.44;6320902;28;20044;-67
2022/12/07 13:50:31;;;;;;;240.27;98.75;;;;;;;-21.38;45.45;98923.81;6321098;28;20058;-68
2022/12/07 13:53:32;;;;;;;227.90;96.00;;;;;;;-21.40;46.13;98916.16;6320556;28;20131;-68
2022/12/07 13:56:39;;;;;;;215.77;90.50;;;;;;;-21.41;45.57;98918.56;6321015;28;20147;-68
2022/12/07 13:59:40;;;;;;;185.60;74.00;;;;;;;-21.47;45.26;98925.50;6321206;28;20047;-68
2022/12/07 14:02:59;;;;;;;190.07;76.60;;;;;;;-21.54;46.19;98917.44;6320621;28;20043;-68
2022/12/07 14:06:15;;;;;;;163.05;72.47;;;;;;;-21.54;45.97;98922.44;6320019;28;20040;-67
2022/12/07 14:09:23;;;;;;;143.07;62.72;;;;;;;-21.57;46.02;98927.13;6321433;28;20043;-70
2022/12/07 14:12:29;;;;;;;187.43;65.03;;;;;;;-21.70;45.12;98913.41;6321360;28;20040;-68
2022/12/07 14:15:34;;;;;;;;;;;;;;;-21.67;45.47;98928.66;6320991;28;20055;-68
2022/12/07 14:18:41;;;;;;;172.60;60.83;;;;;;;-21.74;45.89;98922.19;6320727;28;19931;-68
2022/12/07 14:21:43;;;;;;;203.38;72.90;;;;;;;-21.78;45.28;98915.19;6320557;28;20058;-68
2022/12/07 14:24:49;;;;;;;201.50;68.78;;;;;;;-21.84;45.56;98915.50;6320443;28;20122;-69